Algonquin Park, Canada
Current Conditions -  °F | °C
As of 3:00 AM on Friday 19 Dec 2014 (Local Time) from CYQA Reporting Station
Few Clouds Few Clouds  
Wind Chill:   Ceiling: Unl
Heat Index: 12°   Visibility: 9mi
Dew Point:   Wind: 9mph
Humidity: 85%   Direction: 330°NNW
Pressure: 30.1"   Gusts: NA
Location:  45.56°N, 78.59°W
Report Text: CYQA 190800Z AUTO 33008KT 9SM FEW075 M11/M13 A3010 RMK SLP213
Loading
Personal Weather Stations






























Interactive Weather Map New forecast layout! Learn more

10-Day Weather Forecast

Advertisements
Track Severe Weather on mobile